createdAt,value
2022-11-27T00:01:12.061Z,8.17
2022-11-27T00:02:39.195Z,9.63
2022-11-27T00:04:03.337Z,9.00
2022-11-27T00:05:25.515Z,8.90
2022-11-27T00:06:47.562Z,10.17
2022-11-27T00:08:09.604Z,8.83
2022-11-27T00:09:33.381Z,9.67
2022-11-27T00:10:55.448Z,9.30
2022-11-27T00:12:17.509Z,8.57
2022-11-27T00:13:40.126Z,10.73
2022-11-27T00:15:03.557Z,9.77
2022-11-27T00:16:26.658Z,8.87
2022-11-27T00:17:48.679Z,9.17
2022-11-27T00:19:11.505Z,9.07
2022-11-27T00:20:33.588Z,9.17
2022-11-27T00:21:55.694Z,9.47
2022-11-27T00:23:17.899Z,9.67
2022-11-27T00:24:40.261Z,10.47
2022-11-27T00:26:03.423Z,9.50
2022-11-27T00:27:26.107Z,9.80
2022-11-27T00:28:48.580Z,11.00
2022-11-27T00:30:11.030Z,8.90
2022-11-27T00:31:35.136Z,8.43
2022-11-27T00:32:57.239Z,10.77
2022-11-27T00:34:19.277Z,8.67
2022-11-27T00:35:41.589Z,8.70
2022-11-27T00:37:03.668Z,8.70
2022-11-27T00:38:25.752Z,9.60
2022-11-27T00:39:48.122Z,9.50
2022-11-27T00:41:14.224Z,8.57
2022-11-27T00:42:36.269Z,8.37
2022-11-27T00:43:58.788Z,8.93
2022-11-27T00:45:20.881Z,8.90
2022-11-27T00:46:43.023Z,8.90
2022-11-27T00:48:05.429Z,9.07
2022-11-27T00:49:27.569Z,9.10
2022-11-27T00:50:49.665Z,8.00
2022-11-27T00:52:11.734Z,8.60
2022-11-27T00:53:34.323Z,8.30
2022-11-27T00:54:56.345Z,9.00
2022-11-27T00:56:24.389Z,8.30
2022-11-27T00:57:46.519Z,8.97
2022-11-27T00:59:09.817Z,8.37
2022-11-27T01:00:32.020Z,8.93
2022-11-27T01:01:54.155Z,9.03
2022-11-27T01:03:16.296Z,9.53
2022-11-27T01:04:38.658Z,8.10
2022-11-27T01:06:05.528Z,9.83
2022-11-27T01:07:27.710Z,9.57
2022-11-27T01:08:50.527Z,9.20
2022-11-27T01:10:12.970Z,10.03
2022-11-27T01:11:35.658Z,8.93
2022-11-27T01:12:57.711Z,8.40
2022-11-27T01:14:19.755Z,9.10
2022-11-27T01:15:41.886Z,8.57
2022-11-27T01:17:04.003Z,9.30
2022-11-27T01:18:26.198Z,9.13
2022-11-27T01:19:48.326Z,10.17
2022-11-27T01:21:12.158Z,9.77
2022-11-27T01:22:34.415Z,11.07
2022-11-27T01:23:56.517Z,10.23
2022-11-27T01:25:20.102Z,10.33
2022-11-27T01:26:45.614Z,9.90
2022-11-27T01:28:07.705Z,9.23
2022-11-27T01:29:29.956Z,9.83
2022-11-27T01:30:52.280Z,9.10
2022-11-27T01:32:14.490Z,10.07
2022-11-27T01:33:36.609Z,9.30
2022-11-27T01:34:58.667Z,9.10
2022-11-27T01:36:20.934Z,10.40
2022-11-27T01:37:43.008Z,9.60
2022-11-27T01:39:05.349Z,10.23
2022-11-27T01:40:27.430Z,9.40
2022-11-27T01:41:49.641Z,10.80
2022-11-27T01:43:15.691Z,10.33
2022-11-27T01:44:38.209Z,9.30
2022-11-27T01:46:00.786Z,9.57
2022-11-27T01:47:32.625Z,9.80
2022-11-27T01:49:19.751Z,8.70
2022-11-27T01:50:42.190Z,9.07
2022-11-27T01:52:07.354Z,10.90
2022-11-27T01:53:29.606Z,11.33
2022-11-27T01:55:01.230Z,10.10
2022-11-27T01:56:24.414Z,9.60
2022-11-27T01:57:51.294Z,10.27
2022-11-27T01:59:13.928Z,9.60
2022-11-27T02:00:37.017Z,10.10
2022-11-27T02:02:00.281Z,11.13
2022-11-27T02:03:23.050Z,9.53
2022-11-27T02:04:45.224Z,9.10
2022-11-27T02:06:07.589Z,11.80
2022-11-27T02:07:29.728Z,10.73
2022-11-27T02:08:52.516Z,10.80
2022-11-27T02:10:15.915Z,11.30
2022-11-27T02:11:42.884Z,12.00
2022-11-27T02:13:11.833Z,12.10
2022-11-27T02:14:55.000Z,10.90
2022-11-27T02:16:18.309Z,10.70
2022-11-27T02:17:44.921Z,10.20
2022-11-27T02:20:03.339Z,10.67
2022-11-27T02:21:42.058Z,10.83
2022-11-27T02:23:07.196Z,9.50
2022-11-27T02:24:56.323Z,9.53
2022-11-27T02:26:27.575Z,9.70
2022-11-27T02:28:16.702Z,9.80
2022-11-27T02:29:40.828Z,10.20
2022-11-27T02:31:30.558Z,10.00
2022-11-27T02:33:00.001Z,10.60
2022-11-27T02:34:31.985Z,9.70
2022-11-27T02:36:00.580Z,9.50
2022-11-27T02:38:13.876Z,10.07
2022-11-27T02:39:58.049Z,9.50
2022-11-27T02:41:29.298Z,9.17
2022-11-27T02:43:00.357Z,9.63
2022-11-27T02:44:23.729Z,9.20
2022-11-27T02:45:49.266Z,10.67
2022-11-27T02:47:12.943Z,9.63
2022-11-27T02:48:47.362Z,9.47
2022-11-27T02:50:14.451Z,9.37
2022-11-27T02:51:44.689Z,10.10
2022-11-27T02:53:12.303Z,9.10
2022-11-27T02:54:35.072Z,8.40
2022-11-27T02:55:58.536Z,9.10
2022-11-27T02:57:22.195Z,8.47
2022-11-27T02:58:47.291Z,9.13
2022-11-27T03:00:10.493Z,8.43
2022-11-27T03:01:38.697Z,8.77
2022-11-27T03:03:06.730Z,7.97
2022-11-27T03:04:34.535Z,8.17
2022-11-27T03:06:02.054Z,8.13
2022-11-27T03:07:40.565Z,8.87
2022-11-27T03:09:14.900Z,8.43
2022-11-27T03:10:46.336Z,6.93
2022-11-27T03:12:11.079Z,7.33
2022-11-27T03:13:38.049Z,8.23
2022-11-27T03:15:00.221Z,7.80
2022-11-27T03:16:22.254Z,8.10
2022-11-27T03:18:01.664Z,7.70
2022-11-27T03:19:30.730Z,8.40
2022-11-27T03:21:04.163Z,8.17
2022-11-27T03:22:27.905Z,8.53
2022-11-27T03:23:50.047Z,7.87
2022-11-27T03:25:12.214Z,8.07
2022-11-27T03:26:34.675Z,7.70
2022-11-27T03:28:01.102Z,8.93
2022-11-27T03:29:46.121Z,9.17
2022-11-27T03:31:08.350Z,8.00
2022-11-27T03:32:32.239Z,8.27
2022-11-27T03:33:54.813Z,8.43
2022-11-27T03:35:21.839Z,8.47
2022-11-27T03:36:45.320Z,9.23
2022-11-27T03:38:07.445Z,9.27
2022-11-27T03:39:30.823Z,8.83
2022-11-27T03:41:06.905Z,9.50
2022-11-27T03:42:34.585Z,8.80
2022-11-27T03:44:10.306Z,10.23
2022-11-27T03:45:47.181Z,9.13
2022-11-27T03:47:24.287Z,8.57
2022-11-27T03:48:59.142Z,9.50
2022-11-27T03:50:56.492Z,10.20
2022-11-27T03:52:18.529Z,8.53
2022-11-27T03:53:53.272Z,9.50
2022-11-27T03:55:30.072Z,9.80
2022-11-27T03:57:02.043Z,10.60
2022-11-27T03:58:48.747Z,8.97
2022-11-27T04:00:11.979Z,9.73
2022-11-27T04:01:34.325Z,9.83
2022-11-27T04:02:56.426Z,9.20
2022-11-27T04:04:18.554Z,9.20
2022-11-27T04:05:40.959Z,9.63
2022-11-27T04:07:03.034Z,9.70
2022-11-27T04:08:25.310Z,10.70
2022-11-27T04:09:47.350Z,9.03
2022-11-27T04:11:09.456Z,9.90
2022-11-27T04:12:31.496Z,11.50
2022-11-27T04:13:53.544Z,9.63
2022-11-27T04:15:15.642Z,10.20
2022-11-27T04:16:37.766Z,10.20
2022-11-27T04:17:59.859Z,10.10
2022-11-27T04:19:21.886Z,10.27
2022-11-27T04:20:44.231Z,10.43
2022-11-27T04:22:06.274Z,11.00
2022-11-27T04:23:28.302Z,11.33
2022-11-27T04:24:51.184Z,9.87
2022-11-27T04:26:13.221Z,9.87
2022-11-27T04:27:35.249Z,9.63
2022-11-27T04:28:57.317Z,9.33
2022-11-27T04:30:19.648Z,11.53
2022-11-27T04:31:54.876Z,10.70
2022-11-27T04:33:16.991Z,11.13
2022-11-27T04:34:39.252Z,10.63
2022-11-27T04:36:01.501Z,10.17
2022-11-27T04:37:23.559Z,10.40
2022-11-27T04:38:45.682Z,9.97
2022-11-27T04:40:08.393Z,9.90
2022-11-27T04:41:30.669Z,10.17
2022-11-27T04:42:53.588Z,11.30
2022-11-27T04:44:15.751Z,10.57
2022-11-27T04:45:38.180Z,9.80
2022-11-27T04:47:00.359Z,10.80
2022-11-27T04:48:22.531Z,11.00
2022-11-27T04:49:44.734Z,11.27
2022-11-27T04:51:06.795Z,9.70
2022-11-27T04:52:28.960Z,9.70
2022-11-27T04:53:51.040Z,11.43
2022-11-27T04:55:13.075Z,11.57
2022-11-27T04:56:35.149Z,10.40
2022-11-27T04:57:57.184Z,8.60
2022-11-27T04:59:19.406Z,9.40
2022-11-27T05:00:41.488Z,10.00
2022-11-27T05:02:03.691Z,9.93
2022-11-27T05:03:25.801Z,9.70
2022-11-27T05:04:47.825Z,10.83
2022-11-27T05:06:09.854Z,11.40
2022-11-27T05:07:31.976Z,9.10
2022-11-27T05:08:59.944Z,10.07
2022-11-27T05:10:21.988Z,9.50
2022-11-27T05:11:44.858Z,9.10
2022-11-27T05:13:06.979Z,9.47
2022-11-27T05:14:29.334Z,9.40
2022-11-27T05:15:51.429Z,10.70
2022-11-27T05:17:14.164Z,9.83
2022-11-27T05:18:36.546Z,11.23
2022-11-27T05:19:58.578Z,10.57
2022-11-27T05:21:20.607Z,10.50
2022-11-27T05:22:44.138Z,10.70
2022-11-27T05:24:06.720Z,10.10
2022-11-27T05:25:28.729Z,10.73
2022-11-27T05:26:51.113Z,10.80
2022-11-27T05:28:13.240Z,9.50
2022-11-27T05:29:35.266Z,11.30
2022-11-27T05:30:57.568Z,10.27
2022-11-27T05:32:19.663Z,9.40
2022-11-27T05:33:41.703Z,9.70
2022-11-27T05:35:03.895Z,10.80
2022-11-27T05:36:26.032Z,10.70
2022-11-27T05:37:48.100Z,10.63
2022-11-27T05:39:11.191Z,9.17
2022-11-27T05:40:33.217Z,10.30
2022-11-27T05:41:55.247Z,10.63
2022-11-27T05:43:17.323Z,9.53
2022-11-27T05:44:39.715Z,10.30
2022-11-27T05:46:10.395Z,11.17
2022-11-27T05:47:32.434Z,11.37
2022-11-27T05:48:54.607Z,11.10
2022-11-27T05:50:16.742Z,10.60
2022-11-27T05:51:38.923Z,10.67
2022-11-27T05:53:00.945Z,12.87
2022-11-27T05:54:23.013Z,10.60
2022-11-27T05:55:45.121Z,10.50
2022-11-27T05:57:07.200Z,11.33
2022-11-27T05:58:29.247Z,10.03
2022-11-27T05:59:51.410Z,10.53
2022-11-27T06:01:15.033Z,11.73
2022-11-27T06:02:37.211Z,11.63
2022-11-27T06:04:00.562Z,11.30
2022-11-27T06:05:22.653Z,12.13
2022-11-27T06:06:44.687Z,11.70
2022-11-27T06:08:06.851Z,12.07
2022-11-27T06:09:28.973Z,12.10
2022-11-27T06:10:51.048Z,11.57
2022-11-27T06:12:13.035Z,12.50
2022-11-27T06:13:35.789Z,11.77
2022-11-27T06:14:57.778Z,15.03
2022-11-27T06:16:22.338Z,11.90
2022-11-27T06:17:44.427Z,12.30
2022-11-27T06:19:07.372Z,13.13
2022-11-27T06:20:29.744Z,12.17
2022-11-27T06:21:51.816Z,13.07
2022-11-27T06:23:13.866Z,11.13
2022-11-27T06:24:35.933Z,12.90
2022-11-27T06:25:57.962Z,12.27
2022-11-27T06:27:20.118Z,13.37
2022-11-27T06:28:42.558Z,12.33
2022-11-27T06:30:05.288Z,14.10
2022-11-27T06:31:30.866Z,13.53
2022-11-27T06:32:53.132Z,13.50
2022-11-27T06:34:15.222Z,13.40
2022-11-27T06:35:37.289Z,14.13
2022-11-27T06:36:59.963Z,15.03
2022-11-27T06:38:23.053Z,13.97
2022-11-27T06:39:45.076Z,14.03
2022-11-27T06:41:13.251Z,14.70
2022-11-27T06:42:35.327Z,13.10
2022-11-27T06:43:59.257Z,14.70
2022-11-27T06:45:21.486Z,13.90
2022-11-27T06:46:43.708Z,14.87
2022-11-27T06:48:05.838Z,14.77
2022-11-27T06:49:27.940Z,15.10
2022-11-27T06:50:50.022Z,15.23
2022-11-27T06:52:12.051Z,13.73
2022-11-27T06:53:36.416Z,14.70
2022-11-27T06:54:58.514Z,14.73
2022-11-27T06:56:23.884Z,14.97
2022-11-27T06:57:45.944Z,16.70
2022-11-27T06:59:08.188Z,15.20
2022-11-27T07:00:30.230Z,14.97
2022-11-27T07:01:52.400Z,15.43
2022-11-27T07:03:14.526Z,14.63
2022-11-27T07:04:36.934Z,15.00
2022-11-27T07:06:04.123Z,15.73
2022-11-27T07:07:26.202Z,15.27
2022-11-27T07:08:48.990Z,15.43
2022-11-27T07:10:12.318Z,14.20
2022-11-27T07:11:34.652Z,15.90
2022-11-27T07:12:56.759Z,15.63
2022-11-27T07:14:18.817Z,13.50
2022-11-27T07:15:40.875Z,14.00
2022-11-27T07:17:03.018Z,15.90
2022-11-27T07:18:25.061Z,15.73
2022-11-27T07:19:47.697Z,13.33
2022-11-27T07:21:10.222Z,13.93
2022-11-27T07:22:32.964Z,15.27
2022-11-27T07:23:56.601Z,15.60
2022-11-27T07:25:18.735Z,15.43
2022-11-27T07:26:40.801Z,16.00
2022-11-27T07:28:02.913Z,16.93
2022-11-27T07:29:24.971Z,14.93
2022-11-27T07:30:57.979Z,14.70
2022-11-27T07:32:20.001Z,15.97
2022-11-27T07:33:42.038Z,14.27
2022-11-27T07:35:04.276Z,15.00
2022-11-27T07:36:29.187Z,14.77
2022-11-27T07:37:51.210Z,14.03
2022-11-27T07:39:13.257Z,15.47
2022-11-27T07:40:35.302Z,15.27
2022-11-27T07:42:00.024Z,14.77
2022-11-27T07:43:24.969Z,15.23
2022-11-27T07:44:47.012Z,13.87
2022-11-27T07:46:15.118Z,15.00
2022-11-27T07:47:38.334Z,16.90
2022-11-27T07:49:00.648Z,12.60
2022-11-27T07:50:22.937Z,14.50
2022-11-27T07:51:44.969Z,15.73
2022-11-27T07:53:07.717Z,15.50
2022-11-27T07:54:29.765Z,13.53
2022-11-27T07:55:52.060Z,13.50
2022-11-27T07:57:14.223Z,13.30
2022-11-27T07:58:36.687Z,14.67
2022-11-27T07:59:58.738Z,14.27
2022-11-27T08:01:21.676Z,16.47
2022-11-27T08:02:43.840Z,14.63
2022-11-27T08:04:05.878Z,13.60
2022-11-27T08:05:28.237Z,15.17
2022-11-27T08:06:50.319Z,13.40
2022-11-27T08:08:12.320Z,13.97
2022-11-27T08:09:34.427Z,12.97
2022-11-27T08:10:56.653Z,14.20
2022-11-27T08:12:18.679Z,14.30
2022-11-27T08:13:40.772Z,13.67
2022-11-27T08:15:04.579Z,14.00
2022-11-27T08:16:27.573Z,13.50
2022-11-27T08:17:49.789Z,13.90
2022-11-27T08:19:12.049Z,13.80
2022-11-27T08:20:34.338Z,13.67
2022-11-27T08:21:57.457Z,14.13
2022-11-27T08:23:19.515Z,13.70
2022-11-27T08:24:42.588Z,14.57
2022-11-27T08:26:09.014Z,14.33
2022-11-27T08:27:33.265Z,13.43
2022-11-27T08:28:56.677Z,14.23
2022-11-27T08:30:18.905Z,14.00
2022-11-27T08:31:41.102Z,13.40
2022-11-27T08:33:03.219Z,13.60
2022-11-27T08:34:26.861Z,13.00
2022-11-27T08:35:49.713Z,12.73
2022-11-27T08:37:11.962Z,14.37
2022-11-27T08:38:34.017Z,13.67
2022-11-27T08:39:56.066Z,13.90
2022-11-27T08:41:18.169Z,13.77
2022-11-27T08:42:40.183Z,12.80
2022-11-27T08:44:06.693Z,14.80
2022-11-27T08:45:32.882Z,12.97
2022-11-27T08:46:54.976Z,12.77
2022-11-27T08:48:17.514Z,13.77
2022-11-27T08:49:43.625Z,13.67
2022-11-27T08:51:10.839Z,13.53
2022-11-27T08:52:32.893Z,14.17
2022-11-27T08:53:54.989Z,13.43
2022-11-27T08:55:17.115Z,12.47
2022-11-27T08:56:39.202Z,13.43
2022-11-27T08:58:01.254Z,11.93
2022-11-27T08:59:23.412Z,11.60
2022-11-27T09:00:45.573Z,12.90
2022-11-27T09:02:13.707Z,13.30
2022-11-27T09:03:35.854Z,14.20
2022-11-27T09:04:57.921Z,12.50
2022-11-27T09:06:22.616Z,12.90
2022-11-27T09:07:44.735Z,14.10
2022-11-27T09:09:06.912Z,13.37
2022-11-27T09:10:29.003Z,12.70
2022-11-27T09:11:51.081Z,12.80
2022-11-27T09:13:13.188Z,12.40
2022-11-27T09:14:35.243Z,12.37
2022-11-27T09:15:58.180Z,12.23
2022-11-27T09:17:20.241Z,11.43
2022-11-27T09:18:45.304Z,14.80
2022-11-27T09:20:08.429Z,12.13
2022-11-27T09:21:31.578Z,12.27
2022-11-27T09:22:53.597Z,12.03
2022-11-27T09:24:15.902Z,11.10
2022-11-27T09:25:39.486Z,10.70
2022-11-27T09:27:01.879Z,11.47
2022-11-27T09:28:29.848Z,11.10
2022-11-27T09:29:53.698Z,11.13
2022-11-27T09:31:16.641Z,12.10
2022-11-27T09:32:38.690Z,12.10
2022-11-27T09:34:00.928Z,10.40
2022-11-27T09:35:23.043Z,12.07
2022-11-27T09:36:45.315Z,9.90
2022-11-27T09:38:07.471Z,11.83
2022-11-27T09:39:33.205Z,11.83
2022-11-27T09:41:03.237Z,11.37
2022-11-27T09:42:47.496Z,11.73
2022-11-27T09:44:16.965Z,10.80
2022-11-27T09:45:50.773Z,10.70
2022-11-27T09:47:16.327Z,11.60
2022-11-27T09:48:41.560Z,11.20
2022-11-27T09:50:17.757Z,12.17
2022-11-27T09:51:53.726Z,11.13
2022-11-27T09:53:31.420Z,10.93
2022-11-27T09:55:13.471Z,12.00
2022-11-27T09:56:36.812Z,10.70
2022-11-27T09:58:07.909Z,11.40
2022-11-27T09:59:50.599Z,10.37
2022-11-27T10:01:28.593Z,10.73
2022-11-27T10:02:54.794Z,10.23
2022-11-27T10:04:19.686Z,10.23
2022-11-27T10:06:23.999Z,10.47
2022-11-27T10:08:07.488Z,11.10
2022-11-27T10:09:52.690Z,10.30
2022-11-27T10:11:29.807Z,9.90
2022-11-27T10:13:26.457Z,10.03
2022-11-27T10:15:14.546Z,11.20
2022-11-27T10:17:16.793Z,12.20
2022-11-27T10:19:05.365Z,10.10
2022-11-27T10:20:37.556Z,11.13
2022-11-27T10:21:59.603Z,11.10
2022-11-27T10:23:36.563Z,10.80
2022-11-27T10:25:01.619Z,10.93
2022-11-27T10:26:38.936Z,10.10
2022-11-27T10:28:10.476Z,11.10
2022-11-27T10:29:45.710Z,11.67
2022-11-27T10:31:22.487Z,10.53
2022-11-27T10:32:55.146Z,10.70
2022-11-27T10:34:24.397Z,10.87
2022-11-27T10:35:49.171Z,11.10
2022-11-27T10:37:21.865Z,10.57
2022-11-27T10:38:44.510Z,11.27
2022-11-27T10:40:11.806Z,11.20
2022-11-27T10:41:49.142Z,13.53
2022-11-27T10:43:17.894Z,10.80
2022-11-27T10:44:44.624Z,10.47
2022-11-27T10:46:27.146Z,10.13
2022-11-27T10:47:49.293Z,11.20
2022-11-27T10:49:11.371Z,11.40
2022-11-27T10:50:33.866Z,11.77
2022-11-27T10:51:55.964Z,11.37
2022-11-27T10:53:20.814Z,11.37
2022-11-27T10:54:46.088Z,11.43
2022-11-27T10:56:15.548Z,11.20
2022-11-27T10:57:47.316Z,10.97
2022-11-27T10:59:30.059Z,10.23
2022-11-27T11:01:09.682Z,12.00
2022-11-27T11:02:38.612Z,10.87
2022-11-27T11:04:31.236Z,10.27
2022-11-27T11:06:20.540Z,10.20
2022-11-27T11:07:43.222Z,12.30
2022-11-27T11:09:13.481Z,11.37
2022-11-27T11:10:38.587Z,10.70
2022-11-27T11:12:07.282Z,11.60
2022-11-27T11:13:32.057Z,10.33
2022-11-27T11:14:59.558Z,10.27
2022-11-27T11:16:27.335Z,10.87
2022-11-27T11:17:51.544Z,10.87
2022-11-27T11:19:25.717Z,10.90
2022-11-27T11:20:50.734Z,10.70
2022-11-27T11:22:15.457Z,10.00
2022-11-27T11:23:40.736Z,10.30
2022-11-27T11:25:02.942Z,9.87
2022-11-27T11:26:38.911Z,9.63
2022-11-27T11:28:00.977Z,9.20
2022-11-27T11:29:30.956Z,9.50
2022-11-27T11:30:57.316Z,9.00
2022-11-27T11:32:35.239Z,8.80
2022-11-27T11:34:03.732Z,9.23
2022-11-27T11:35:36.062Z,9.50
2022-11-27T11:36:59.131Z,9.77
2022-11-27T11:38:32.354Z,9.30
2022-11-27T11:39:58.940Z,8.23
2022-11-27T11:41:21.672Z,8.73
2022-11-27T11:43:06.563Z,10.13
2022-11-27T11:44:36.733Z,10.73
2022-11-27T11:46:28.447Z,10.83
2022-11-27T11:47:56.765Z,8.57
2022-11-27T11:49:24.564Z,8.90
2022-11-27T11:50:54.444Z,9.97
2022-11-27T11:52:31.574Z,10.13
2022-11-27T11:54:09.733Z,9.70
2022-11-27T11:55:39.729Z,9.17
2022-11-27T11:57:10.807Z,9.83
2022-11-27T11:58:45.001Z,9.43
2022-11-27T12:00:14.549Z,8.40
2022-11-27T12:01:54.000Z,9.33
2022-11-27T12:03:19.250Z,9.40
2022-11-27T12:04:50.496Z,9.00
2022-11-27T12:06:28.793Z,7.87
2022-11-27T12:07:53.660Z,10.63
2022-11-27T12:09:38.839Z,9.70
2022-11-27T12:11:18.294Z,9.10
2022-11-27T12:12:55.650Z,9.10
2022-11-27T12:14:29.602Z,9.33
2022-11-27T12:15:57.423Z,9.23
2022-11-27T12:17:19.393Z,8.80
2022-11-27T12:19:13.988Z,8.63
2022-11-27T12:21:21.442Z,8.83
2022-11-27T12:23:06.117Z,8.73
2022-11-27T12:24:46.281Z,9.50
2022-11-27T12:26:20.189Z,8.97
2022-11-27T12:28:08.251Z,7.70
2022-11-27T12:29:55.796Z,8.07
2022-11-27T12:31:56.217Z,7.60
2022-11-27T12:33:27.343Z,8.33
2022-11-27T12:35:01.328Z,7.40
2022-11-27T12:37:00.581Z,7.20
2022-11-27T12:39:27.246Z,7.10
2022-11-27T12:41:26.206Z,6.83
2022-11-27T12:43:24.478Z,7.17
2022-11-27T12:45:00.303Z,6.87
2022-11-27T12:46:22.405Z,8.20
2022-11-27T12:47:56.487Z,6.83
2022-11-27T12:49:27.811Z,6.47
2022-11-27T12:51:26.742Z,6.40
2022-11-27T12:53:11.657Z,7.93
2022-11-27T12:55:01.883Z,7.10
2022-11-27T12:56:42.104Z,6.67
2022-11-27T12:58:09.180Z,7.00
2022-11-27T12:59:33.810Z,7.30
2022-11-27T13:01:04.987Z,7.53
2022-11-27T13:02:34.985Z,8.90
2022-11-27T13:04:10.177Z,8.80
2022-11-27T13:05:46.354Z,7.73
2022-11-27T13:07:20.049Z,8.43
2022-11-27T13:09:10.154Z,8.17
2022-11-27T13:11:13.688Z,7.90
2022-11-27T13:13:01.781Z,6.70
2022-11-27T13:14:26.870Z,7.10
2022-11-27T13:15:57.687Z,6.80
2022-11-27T13:17:20.806Z,6.83
2022-11-27T13:18:58.908Z,7.50
2022-11-27T13:20:28.590Z,6.87
2022-11-27T13:21:53.113Z,6.60
2022-11-27T13:23:15.689Z,7.20
2022-11-27T13:24:38.158Z,6.80
2022-11-27T13:26:11.771Z,9.40
2022-11-27T13:27:37.003Z,5.90
2022-11-27T13:29:06.320Z,5.57
2022-11-27T13:30:32.905Z,5.63
2022-11-27T13:31:58.969Z,6.90
2022-11-27T13:33:34.896Z,5.83
2022-11-27T13:35:02.965Z,6.10
2022-11-27T13:36:38.707Z,5.90
2022-11-27T13:38:09.050Z,6.60
2022-11-27T13:39:42.638Z,6.23
2022-11-27T13:41:06.269Z,5.90
2022-11-27T13:42:29.256Z,6.00
2022-11-27T13:43:52.038Z,5.63
2022-11-27T13:45:24.906Z,5.90
2022-11-27T13:46:54.718Z,7.10
2022-11-27T13:48:31.075Z,6.37
2022-11-27T13:50:03.850Z,6.10
2022-11-27T13:51:37.474Z,7.00
2022-11-27T13:53:05.712Z,6.43
2022-11-27T13:54:29.275Z,6.57
2022-11-27T13:55:56.668Z,6.60
2022-11-27T13:57:21.144Z,7.20
2022-11-27T13:58:43.538Z,6.83
2022-11-27T14:00:09.160Z,6.43
2022-11-27T14:01:31.353Z,7.47
2022-11-27T14:02:53.580Z,6.70
2022-11-27T14:04:15.658Z,6.50
2022-11-27T14:05:41.835Z,7.53
2022-11-27T14:07:07.066Z,6.80
2022-11-27T14:08:33.632Z,7.63
2022-11-27T14:10:05.689Z,7.60
2022-11-27T14:11:44.574Z,7.53
2022-11-27T14:13:09.975Z,7.27
2022-11-27T14:14:32.114Z,7.00
2022-11-27T14:16:02.193Z,7.03
2022-11-27T14:17:33.046Z,6.40
2022-11-27T14:18:58.924Z,7.60
2022-11-27T14:20:26.763Z,7.80
2022-11-27T14:21:49.295Z,8.23
2022-11-27T14:23:13.111Z,7.90
2022-11-27T14:24:40.730Z,8.87
2022-11-27T14:26:15.475Z,8.40
2022-11-27T14:27:37.789Z,8.70
2022-11-27T14:29:00.663Z,9.40
2022-11-27T14:30:39.006Z,9.73
2022-11-27T14:32:02.529Z,9.70
2022-11-27T14:33:27.015Z,10.30
2022-11-27T14:34:49.267Z,11.00
2022-11-27T14:36:23.590Z,10.87
2022-11-27T14:37:45.645Z,11.00
2022-11-27T14:39:07.795Z,11.07
2022-11-27T14:40:29.884Z,11.70
2022-11-27T14:42:22.263Z,12.43
2022-11-27T14:43:47.354Z,10.73
2022-11-27T14:45:21.608Z,12.67
2022-11-27T14:46:44.419Z,14.60
2022-11-27T14:48:06.811Z,12.63
2022-11-27T14:49:30.388Z,11.40
2022-11-27T14:50:54.692Z,13.20
2022-11-27T14:52:18.251Z,13.20
2022-11-27T14:53:41.017Z,13.00
2022-11-27T14:55:03.544Z,12.40
2022-11-27T14:56:31.563Z,13.60
2022-11-27T14:57:54.513Z,13.17
2022-11-27T14:59:19.433Z,12.90
2022-11-27T15:00:56.853Z,12.20
2022-11-27T15:02:23.352Z,11.90
2022-11-27T15:03:55.997Z,12.17
2022-11-27T15:05:26.953Z,12.57
2022-11-27T15:06:48.996Z,12.40
2022-11-27T15:08:11.177Z,12.37
2022-11-27T15:09:35.707Z,11.50
2022-11-27T15:10:59.737Z,13.57
2022-11-27T15:12:34.342Z,11.97
2022-11-27T15:14:02.417Z,11.87
2022-11-27T15:15:27.820Z,13.27
2022-11-27T15:16:52.496Z,12.40
2022-11-27T15:18:20.834Z,11.73
2022-11-27T15:19:43.886Z,11.70
2022-11-27T15:21:12.486Z,12.20
2022-11-27T15:22:36.752Z,12.77
2022-11-27T15:23:59.334Z,12.63
2022-11-27T15:25:40.703Z,12.87
2022-11-27T15:27:14.818Z,11.57
2022-11-27T15:28:40.406Z,12.80
2022-11-27T15:30:12.130Z,12.70
2022-11-27T15:31:38.614Z,11.80
2022-11-27T15:33:01.183Z,11.27
2022-11-27T15:34:24.310Z,10.67
2022-11-27T15:35:51.198Z,12.53
2022-11-27T15:37:27.650Z,12.33
2022-11-27T15:38:52.654Z,11.93
2022-11-27T15:40:29.873Z,12.00
2022-11-27T15:41:56.213Z,11.70
2022-11-27T15:43:18.282Z,12.40
2022-11-27T15:44:40.883Z,10.63
2022-11-27T15:46:06.163Z,10.63
2022-11-27T15:47:36.097Z,11.40
2022-11-27T15:48:58.411Z,11.20
2022-11-27T15:50:20.489Z,11.20
2022-11-27T15:51:43.222Z,10.77
2022-11-27T15:53:05.318Z,10.77
2022-11-27T15:54:27.447Z,11.67
2022-11-27T15:55:49.603Z,10.53
2022-11-27T15:57:12.397Z,10.90
2022-11-27T15:58:34.486Z,10.77
2022-11-27T15:59:56.603Z,11.90
2022-11-27T16:01:18.789Z,11.50
2022-11-27T16:02:41.024Z,11.00
2022-11-27T16:04:03.432Z,11.40
2022-11-27T16:05:25.437Z,10.77
2022-11-27T16:06:47.511Z,11.50
2022-11-27T16:08:12.374Z,10.67
2022-11-27T16:09:36.061Z,11.73
2022-11-27T16:11:03.945Z,10.90
2022-11-27T16:12:26.072Z,12.37
2022-11-27T16:13:48.293Z,12.00
2022-11-27T16:15:10.737Z,10.67
2022-11-27T16:16:32.964Z,10.83
2022-11-27T16:17:55.075Z,11.00
2022-11-27T16:19:17.219Z,10.37
2022-11-27T16:20:39.259Z,11.17
2022-11-27T16:22:01.290Z,11.00
2022-11-27T16:23:23.377Z,11.47
2022-11-27T16:24:45.421Z,10.47
2022-11-27T16:26:10.469Z,11.90
2022-11-27T16:27:32.549Z,11.23
2022-11-27T16:28:55.270Z,11.00
2022-11-27T16:30:19.971Z,11.40
2022-11-27T16:31:42.151Z,10.60
2022-11-27T16:33:04.450Z,11.93
2022-11-27T16:34:26.584Z,11.27
2022-11-27T16:35:48.646Z,11.47
2022-11-27T16:37:15.570Z,11.23
2022-11-27T16:38:41.116Z,11.13
2022-11-27T16:40:03.729Z,10.50
2022-11-27T16:42:39.049Z,11.00
2022-11-27T16:44:01.204Z,11.87
2022-11-27T16:45:23.319Z,11.53
2022-11-27T16:46:45.537Z,11.07
2022-11-27T16:48:07.643Z,10.80
2022-11-27T16:49:29.821Z,9.70
2022-11-27T16:50:51.884Z,11.17
2022-11-27T16:52:14.218Z,10.50
2022-11-27T16:53:41.013Z,11.30
2022-11-27T16:55:03.250Z,10.70
2022-11-27T16:56:26.992Z,10.30
2022-11-27T16:57:49.185Z,10.00
2022-11-27T16:59:13.567Z,10.70
2022-11-27T17:00:35.927Z,9.90
2022-11-27T17:01:58.053Z,10.70
2022-11-27T17:03:20.449Z,10.70
2022-11-27T17:04:43.011Z,11.03
2022-11-27T17:06:23.176Z,11.47
2022-11-27T17:07:45.442Z,11.77
2022-11-27T17:09:08.669Z,10.97
2022-11-27T17:10:30.939Z,11.20
2022-11-27T17:11:52.981Z,11.80
2022-11-27T17:13:15.043Z,11.30
2022-11-27T17:14:37.199Z,12.20
2022-11-27T17:16:01.525Z,11.73
2022-11-27T17:17:23.666Z,10.47
2022-11-27T17:18:46.199Z,11.03
2022-11-27T17:20:08.711Z,11.27
2022-11-27T17:21:32.985Z,10.50
2022-11-27T17:22:55.137Z,10.80
2022-11-27T17:24:17.741Z,10.60
2022-11-27T17:25:39.834Z,11.07
2022-11-27T17:27:02.722Z,10.77
2022-11-27T17:28:24.776Z,11.87
2022-11-27T17:29:46.825Z,11.30
2022-11-27T17:31:15.134Z,11.30
2022-11-27T17:32:37.239Z,10.53
2022-11-27T17:33:59.532Z,12.50
2022-11-27T17:35:21.590Z,12.23
2022-11-27T17:36:45.060Z,11.80
2022-11-27T17:38:07.150Z,11.27
2022-11-27T17:39:29.198Z,11.07
2022-11-27T17:40:51.261Z,11.17
2022-11-27T17:42:16.136Z,10.70
2022-11-27T17:43:40.924Z,11.20
2022-11-27T17:45:03.297Z,10.87
2022-11-27T17:46:27.510Z,10.97
2022-11-27T17:47:49.570Z,10.70
2022-11-27T17:49:11.701Z,11.80
2022-11-27T17:50:33.827Z,10.47
2022-11-27T17:51:55.918Z,12.13
2022-11-27T17:53:18.553Z,10.70
2022-11-27T17:54:40.894Z,10.67
2022-11-27T17:56:14.224Z,11.27
2022-11-27T17:57:36.343Z,11.60
2022-11-27T17:58:59.839Z,9.57
2022-11-27T18:00:21.949Z,10.03
2022-11-27T18:01:43.993Z,10.90
2022-11-27T18:03:07.575Z,10.13
2022-11-27T18:04:31.122Z,9.67
2022-11-27T18:05:53.423Z,10.13
2022-11-27T18:07:15.594Z,10.70
2022-11-27T18:08:38.091Z,10.57
2022-11-27T18:10:00.191Z,9.90
2022-11-27T18:11:25.578Z,10.53
2022-11-27T18:12:47.696Z,10.47
2022-11-27T18:14:13.452Z,9.80
2022-11-27T18:15:35.673Z,9.37
2022-11-27T18:17:04.076Z,9.40
2022-11-27T18:18:26.364Z,9.93
2022-11-27T18:19:50.875Z,10.17
2022-11-27T18:21:18.308Z,10.07
2022-11-27T18:22:40.778Z,9.63
2022-11-27T18:25:48.940Z,10.13
2022-11-27T18:27:12.218Z,10.20
2022-11-27T18:28:34.514Z,11.10
2022-11-27T18:29:56.609Z,10.10
2022-11-27T18:31:19.972Z,9.87
2022-11-27T18:32:42.123Z,10.20
2022-11-27T18:34:04.309Z,9.90
2022-11-27T18:35:26.486Z,10.37
2022-11-27T18:36:48.561Z,8.90
2022-11-27T18:38:10.625Z,10.20
2022-11-27T18:39:33.454Z,10.07
2022-11-27T18:40:55.536Z,9.47
2022-11-27T18:42:17.673Z,9.37
2022-11-27T18:43:40.515Z,8.10
2022-11-27T18:45:02.568Z,10.13
2022-11-27T18:46:24.835Z,8.53
2022-11-27T18:47:47.060Z,9.03
2022-11-27T18:49:09.160Z,8.90
2022-11-27T18:50:31.216Z,9.20
2022-11-27T18:51:54.223Z,10.83